createdAt,value
2019-02-09T00:00:17.536Z,0.937805
2019-02-09T00:01:27.051Z,0.947876
2019-02-09T00:02:36.570Z,1.008301
2019-02-09T00:03:46.101Z,1.038513
2019-02-09T00:04:55.627Z,1.058655
2019-02-09T00:06:05.150Z,1.058655
2019-02-09T00:07:14.701Z,1.038513
2019-02-09T00:08:24.230Z,1.018372
2019-02-09T00:09:33.792Z,1.038513
2019-02-09T00:10:43.300Z,1.078796
2019-02-09T00:11:52.830Z,1.12915
2019-02-09T00:13:02.404Z,1.139221
2019-02-09T00:14:11.949Z,1.11908
2019-02-09T00:15:21.452Z,1.058655
2019-02-09T00:16:30.970Z,1.018372
2019-02-09T00:17:40.488Z,0.988159
2019-02-09T00:18:50.027Z,0.988159
2019-02-09T00:19:59.572Z,0.978088
2019-02-09T00:21:09.099Z,0.988159
2019-02-09T00:22:18.628Z,0.978088
2019-02-09T00:23:28.128Z,0.917664
2019-02-09T00:24:37.657Z,0.86731
2019-02-09T00:25:47.181Z,0.796814
2019-02-09T00:26:56.694Z,0.756531
2019-02-09T00:28:06.237Z,0.726318
2019-02-09T00:29:15.778Z,0.655823
2019-02-09T00:30:25.278Z,0.61554
2019-02-09T00:31:34.819Z,0.61554
2019-02-09T00:32:44.319Z,0.585327
2019-02-09T00:33:53.840Z,0.61554
2019-02-09T00:35:03.381Z,0.655823
2019-02-09T00:36:12.910Z,0.686035
2019-02-09T00:37:22.496Z,0.726318
2019-02-09T00:38:32.030Z,0.766602
2019-02-09T00:39:41.571Z,0.806885
2019-02-09T00:40:51.081Z,0.86731
2019-02-09T00:42:00.601Z,0.917664
2019-02-09T00:43:10.129Z,0.937805
2019-02-09T00:44:19.655Z,0.957947
2019-02-09T00:45:29.190Z,0.937805
2019-02-09T00:46:38.717Z,0.947876
2019-02-09T00:47:48.231Z,0.917664
2019-02-09T00:48:57.768Z,0.917664
2019-02-09T00:50:07.318Z,0.907593
2019-02-09T00:51:16.844Z,0.907593
2019-02-09T00:52:26.414Z,0.87738
2019-02-09T00:53:35.958Z,0.87738
2019-02-09T00:54:45.484Z,0.907593
2019-02-09T00:55:54.989Z,0.907593
2019-02-09T00:57:04.520Z,0.907593
2019-02-09T00:58:14.050Z,0.937805
2019-02-09T00:59:23.585Z,0.937805
2019-02-09T01:00:33.138Z,0.937805
2019-02-09T01:01:42.665Z,0.978088
2019-02-09T01:02:52.180Z,1.008301
2019-02-09T01:04:01.706Z,1.008301
2019-02-09T01:05:11.255Z,0.988159
2019-02-09T01:06:20.773Z,0.978088
2019-02-09T01:07:30.286Z,0.978088
2019-02-09T01:08:39.804Z,0.947876
2019-02-09T01:09:49.510Z,0.937805
2019-02-09T01:10:58.974Z,0.917664
2019-02-09T01:12:08.481Z,0.907593
2019-02-09T01:13:18.002Z,0.86731
2019-02-09T01:14:27.575Z,0.857239
2019-02-09T01:15:37.105Z,0.827026
2019-02-09T01:16:46.637Z,0.827026
2019-02-09T01:17:56.145Z,0.806885
2019-02-09T01:19:05.677Z,0.806885
2019-02-09T01:20:15.195Z,0.796814
2019-02-09T01:21:24.716Z,0.766602
2019-02-09T01:22:34.254Z,0.756531
2019-02-09T01:23:43.848Z,0.696106
2019-02-09T01:24:53.383Z,0.675964
2019-02-09T01:26:02.917Z,0.726318
2019-02-09T01:27:12.425Z,0.736389
2019-02-09T01:28:21.940Z,0.776672
2019-02-09T01:29:31.470Z,0.726318
2019-02-09T01:30:40.988Z,0.726318
2019-02-09T01:31:50.535Z,0.655823
2019-02-09T01:33:00.107Z,0.61554
2019-02-09T01:34:09.662Z,0.585327
2019-02-09T01:35:19.278Z,0.585327
2019-02-09T01:36:28.817Z,0.585327
2019-02-09T01:37:38.371Z,0.585327
2019-02-09T01:38:47.883Z,0.61554
2019-02-09T01:39:57.470Z,0.595398
2019-02-09T01:41:07.006Z,0.575256
2019-02-09T01:42:16.535Z,0.504761
2019-02-09T01:43:26.064Z,0.464478
2019-02-09T01:44:35.595Z,0.444336
2019-02-09T01:45:45.128Z,0.393982
2019-02-09T01:46:54.662Z,0.393982
2019-02-09T01:48:04.180Z,0.37384
2019-02-09T01:49:13.695Z,0.343628
2019-02-09T01:50:23.254Z,0.293274
2019-02-09T01:51:32.772Z,0.283203
2019-02-09T01:52:42.333Z,0.232849
2019-02-09T01:53:51.847Z,0.212708
2019-02-09T01:55:01.367Z,0.12207
2019-02-09T01:56:10.897Z,0.071716
2019-02-09T01:57:20.412Z,0.011292
2019-02-09T01:58:29.928Z,-0.069275
2019-02-09T01:59:39.449Z,-0.109558
2019-02-09T02:00:48.999Z,-0.139771
2019-02-09T02:01:58.568Z,-0.180054
2019-02-09T02:03:08.073Z,-0.200195
2019-02-09T02:04:17.589Z,-0.230408
2019-02-09T02:05:27.144Z,-0.250549
2019-02-09T02:06:36.669Z,-0.280762
2019-02-09T02:07:46.186Z,-0.280762
2019-02-09T02:08:55.702Z,-0.280762
2019-02-09T02:10:05.289Z,-0.290833
2019-02-09T02:11:14.837Z,-0.341187
2019-02-09T02:12:24.348Z,-0.351257
2019-02-09T02:13:33.869Z,-0.38147
2019-02-09T02:14:43.420Z,-0.411682
2019-02-09T02:15:52.935Z,-0.411682
2019-02-09T02:17:02.450Z,-0.411682
2019-02-09T02:18:12.972Z,-0.441895
2019-02-09T02:19:22.493Z,-0.441895
2019-02-09T02:20:32.027Z,-0.441895
2019-02-09T02:21:41.543Z,-0.431824
2019-02-09T02:22:51.050Z,-0.462036
2019-02-09T02:24:00.568Z,-0.492249
2019-02-09T02:25:10.076Z,-0.502319
2019-02-09T02:26:19.655Z,-0.542603
2019-02-09T02:27:29.202Z,-0.562744
2019-02-09T02:28:38.707Z,-0.592957
2019-02-09T02:29:48.218Z,-0.623169
2019-02-09T02:30:57.765Z,-0.643311
2019-02-09T02:32:07.282Z,-0.623169
2019-02-09T02:33:16.823Z,-0.623169
2019-02-09T02:34:26.370Z,-0.653381
2019-02-09T02:35:35.926Z,-0.653381
2019-02-09T02:36:45.452Z,-0.683594
2019-02-09T02:37:54.966Z,-0.673523
2019-02-09T02:39:04.505Z,-0.683594
2019-02-09T02:40:14.013Z,-0.703735
2019-02-09T02:41:23.618Z,-0.613098
2019-02-09T02:42:33.172Z,-0.492249
2019-02-09T02:43:42.665Z,-0.431824
2019-02-09T02:44:52.185Z,-0.441895
2019-02-09T02:46:01.709Z,-0.502319
2019-02-09T02:47:11.222Z,-0.562744
2019-02-09T02:48:20.748Z,-0.613098
2019-02-09T02:49:30.283Z,-0.572815
2019-02-09T02:50:39.833Z,-0.623169
2019-02-09T02:51:49.402Z,-0.643311
2019-02-09T02:52:58.938Z,-0.623169
2019-02-09T02:54:08.459Z,-0.613098
2019-02-09T02:55:17.992Z,-0.542603
2019-02-09T02:56:27.617Z,-0.290833
2019-02-09T02:57:37.090Z,-0.059204
2019-02-09T02:58:46.602Z,0.222778
2019-02-09T02:59:56.130Z,0.444336
2019-02-09T03:01:05.649Z,0.575256
2019-02-09T03:02:15.174Z,0.726318
2019-02-09T03:03:24.699Z,0.907593
2019-02-09T03:04:34.202Z,0.937805
2019-02-09T03:05:43.753Z,1.038513
2019-02-09T03:06:53.276Z,1.098938
2019-02-09T03:08:02.826Z,1.11908
2019-02-09T03:09:12.331Z,1.139221
2019-02-09T03:10:21.861Z,1.139221
2019-02-09T03:11:31.421Z,1.159363
2019-02-09T03:12:40.945Z,1.169434
2019-02-09T03:13:50.470Z,1.169434
2019-02-09T03:14:59.991Z,1.189575
2019-02-09T03:16:09.544Z,1.169434
2019-02-09T03:17:19.066Z,1.169434
2019-02-09T03:18:28.580Z,1.169434
2019-02-09T03:19:38.082Z,1.11908
2019-02-09T03:20:47.620Z,1.098938
2019-02-09T03:21:57.136Z,1.038513
2019-02-09T03:23:06.653Z,1.008301
2019-02-09T03:24:16.190Z,1.008301
2019-02-09T03:25:25.721Z,1.008301
2019-02-09T03:26:35.262Z,1.008301
2019-02-09T03:27:44.895Z,1.018372
2019-02-09T03:28:54.416Z,1.11908
2019-02-09T03:30:03.921Z,1.169434
2019-02-09T03:31:13.470Z,1.219788
2019-02-09T03:32:23.012Z,1.229858
2019-02-09T03:33:32.558Z,1.280212
2019-02-09T03:34:42.076Z,1.340637
2019-02-09T03:35:51.582Z,1.340637
2019-02-09T03:37:01.094Z,1.320496
2019-02-09T03:38:10.602Z,1.310425
2019-02-09T03:39:20.108Z,1.280212
2019-02-09T03:40:29.627Z,1.280212
2019-02-09T03:41:39.164Z,1.280212
2019-02-09T03:42:48.677Z,1.239929
2019-02-09T03:43:58.202Z,1.189575
2019-02-09T03:45:07.714Z,1.169434
2019-02-09T03:46:17.243Z,1.12915
2019-02-09T03:47:26.766Z,1.11908
2019-02-09T03:48:36.282Z,1.098938
2019-02-09T03:49:45.809Z,1.098938
2019-02-09T03:50:55.297Z,1.048584
2019-02-09T03:52:04.841Z,1.038513
2019-02-09T03:53:14.358Z,1.008301
2019-02-09T03:54:23.898Z,0.978088
2019-02-09T03:55:33.444Z,0.957947
2019-02-09T03:56:42.981Z,0.978088
2019-02-09T03:57:52.499Z,1.018372
2019-02-09T03:59:02.033Z,1.048584
2019-02-09T04:00:11.553Z,1.098938
2019-02-09T04:01:21.069Z,1.159363
2019-02-09T04:02:30.603Z,1.189575
2019-02-09T04:03:40.154Z,1.239929
2019-02-09T04:04:49.690Z,1.280212
2019-02-09T04:05:59.216Z,1.310425
2019-02-09T04:07:08.748Z,1.340637
2019-02-09T04:08:18.249Z,1.37085
2019-02-09T04:09:27.755Z,1.38092
2019-02-09T04:10:37.280Z,1.411133
2019-02-09T04:11:46.836Z,1.421204
2019-02-09T04:12:56.370Z,1.441345
2019-02-09T04:14:05.898Z,1.481628
2019-02-09T04:15:15.400Z,1.481628
2019-02-09T04:16:24.925Z,1.481628
2019-02-09T04:17:34.455Z,1.50177
2019-02-09T04:18:43.997Z,1.521912
2019-02-09T04:19:53.540Z,1.521912
2019-02-09T04:21:03.065Z,1.521912
2019-02-09T04:22:12.595Z,1.562195
2019-02-09T04:23:22.119Z,1.562195
2019-02-09T04:24:31.662Z,1.62262
2019-02-09T04:25:41.190Z,1.683044
2019-02-09T04:26:50.703Z,1.733398
2019-02-09T04:28:00.210Z,1.763611
2019-02-09T04:29:09.735Z,1.773682
2019-02-09T04:30:19.244Z,1.773682
2019-02-09T04:31:28.781Z,1.763611
2019-02-09T04:32:38.350Z,1.803894
2019-02-09T04:33:47.863Z,1.813965
2019-02-09T04:34:57.378Z,1.844177
2019-02-09T04:36:06.881Z,1.88446
2019-02-09T04:37:16.393Z,1.914673
2019-02-09T04:38:25.910Z,1.914673
2019-02-09T04:39:35.444Z,1.88446
2019-02-09T04:40:44.984Z,1.88446
2019-02-09T04:41:54.528Z,1.87439
2019-02-09T04:43:04.053Z,1.88446
2019-02-09T04:44:13.571Z,1.894531
2019-02-09T04:45:23.087Z,1.985168
2019-02-09T04:46:32.628Z,2.065735
2019-02-09T04:47:42.165Z,2.13623
2019-02-09T04:48:51.679Z,2.196655
2019-02-09T04:50:01.222Z,2.287292
2019-02-09T04:51:10.730Z,2.327576
2019-02-09T04:52:20.256Z,2.327576
2019-02-09T04:53:29.767Z,2.347717
2019-02-09T04:54:39.286Z,2.357788
2019-02-09T04:55:48.813Z,2.418213
2019-02-09T04:56:58.337Z,2.438354
2019-02-09T04:58:07.868Z,2.50885
2019-02-09T04:59:17.393Z,2.599487
2019-02-09T05:00:26.922Z,2.639771
2019-02-09T05:01:37.448Z,2.710266
2019-02-09T05:02:46.978Z,2.740479
2019-02-09T05:03:56.566Z,2.750549
2019-02-09T05:05:06.086Z,2.800903
2019-02-09T05:06:15.616Z,2.851257
2019-02-09T05:07:25.163Z,2.851257
2019-02-09T05:08:34.682Z,2.871399
2019-02-09T05:09:44.193Z,2.871399
2019-02-09T05:10:53.726Z,2.891541
2019-02-09T05:12:03.232Z,2.891541
2019-02-09T05:13:12.772Z,2.891541
2019-02-09T05:14:22.285Z,2.891541
2019-02-09T05:15:31.804Z,2.871399
2019-02-09T05:16:41.331Z,2.901611
2019-02-09T05:17:50.854Z,2.901611
2019-02-09T05:19:00.374Z,2.972107
2019-02-09T05:20:09.898Z,3.01239
2019-02-09T05:21:19.642Z,3.032532
2019-02-09T05:22:29.174Z,3.01239
2019-02-09T05:23:38.743Z,3.002319
2019-02-09T05:24:48.288Z,2.982178
2019-02-09T05:25:57.868Z,2.972107
2019-02-09T05:27:07.386Z,2.951965
2019-02-09T05:28:16.929Z,2.982178
2019-02-09T05:29:26.480Z,3.002319
2019-02-09T05:30:35.991Z,3.01239
2019-02-09T05:31:45.509Z,3.082886
2019-02-09T05:32:55.084Z,3.13324
2019-02-09T05:34:04.603Z,3.163452
2019-02-09T05:35:14.112Z,3.213806
2019-02-09T05:36:23.627Z,3.26416
2019-02-09T05:37:33.139Z,3.314514
2019-02-09T05:38:42.692Z,3.445435
2019-02-09T05:39:52.245Z,3.556213
2019-02-09T05:41:01.787Z,3.7677
2019-02-09T05:42:11.318Z,3.838196
2019-02-09T05:43:20.841Z,4.130249
2019-02-09T05:44:30.399Z,4.321594
2019-02-09T05:45:39.931Z,4.341736
2019-02-09T05:46:49.444Z,4.321594
2019-02-09T05:47:58.973Z,4.341736
2019-02-09T05:49:08.490Z,4.321594
2019-02-09T05:50:18.036Z,4.281311
2019-02-09T05:51:27.552Z,4.190674
2019-02-09T05:52:37.059Z,4.120178
2019-02-09T05:53:46.630Z,4.059753
2019-02-09T05:54:56.166Z,4.01947
2019-02-09T05:56:05.671Z,3.989258
2019-02-09T05:57:15.207Z,4.01947
2019-02-09T05:58:24.790Z,4.039612
2019-02-09T05:59:34.272Z,4.059753
2019-02-09T06:00:43.820Z,4.14032
2019-02-09T06:01:53.386Z,4.170532
2019-02-09T06:03:02.958Z,4.241028
2019-02-09T06:04:12.475Z,4.261169
2019-02-09T06:05:22.019Z,4.311523
2019-02-09T06:06:31.546Z,4.371948
2019-02-09T06:07:41.076Z,4.442444
2019-02-09T06:08:50.617Z,4.593506
2019-02-09T06:10:00.203Z,4.603577
2019-02-09T06:11:09.645Z,4.674072
2019-02-09T06:12:20.182Z,4.704285
2019-02-09T06:13:29.714Z,4.744568
2019-02-09T06:14:39.234Z,4.754639
2019-02-09T06:15:48.736Z,4.734497
2019-02-09T06:16:58.253Z,4.734497
2019-02-09T06:18:07.798Z,4.704285
2019-02-09T06:19:17.326Z,4.704285
2019-02-09T06:20:26.855Z,4.714355
2019-02-09T06:21:36.416Z,4.77478
2019-02-09T06:22:45.927Z,4.784851
2019-02-09T06:23:55.454Z,4.804993
2019-02-09T06:25:04.967Z,4.855347
2019-02-09T06:26:14.498Z,4.855347
2019-02-09T06:27:24.014Z,4.855347
2019-02-09T06:28:33.559Z,4.815063
2019-02-09T06:29:43.066Z,4.835205
2019-02-09T06:30:53.575Z,4.855347
2019-02-09T06:32:03.087Z,4.885559
2019-02-09T06:33:12.627Z,4.89563
2019-02-09T06:34:22.179Z,4.89563
2019-02-09T06:35:31.701Z,4.915771
2019-02-09T06:36:41.229Z,4.956055
2019-02-09T06:37:50.743Z,4.935913
2019-02-09T06:39:00.281Z,4.996338
2019-02-09T06:40:09.798Z,4.986267
2019-02-09T06:41:19.336Z,5.036621
2019-02-09T06:42:28.843Z,5.107117
2019-02-09T06:43:38.398Z,5.167542
2019-02-09T06:44:47.919Z,5.248108
2019-02-09T06:45:57.473Z,5.379028
2019-02-09T06:47:07.014Z,5.459595
2019-02-09T06:48:16.567Z,5.469666
2019-02-09T06:49:26.095Z,5.540161
2019-02-09T06:50:35.626Z,5.691223
2019-02-09T06:51:45.163Z,5.691223
2019-02-09T06:52:54.688Z,5.610657
2019-02-09T06:54:04.237Z,5.459595
2019-02-09T06:55:13.767Z,5.379028
2019-02-09T06:56:23.303Z,5.207825
2019-02-09T06:57:32.812Z,5.137329
2019-02-09T06:58:42.349Z,5.076904
2019-02-09T06:59:51.874Z,4.996338
2019-02-09T07:01:01.378Z,4.966125
2019-02-09T07:02:10.912Z,4.89563
2019-02-09T07:03:20.485Z,4.784851
2019-02-09T07:04:30.032Z,4.714355
2019-02-09T07:05:39.603Z,4.815063
2019-02-09T07:06:49.125Z,4.966125
2019-02-09T07:07:58.656Z,5.046692
2019-02-09T07:09:08.192Z,5.348816
2019-02-09T07:10:17.842Z,5.409241
2019-02-09T07:11:27.595Z,5.439453
2019-02-09T07:12:37.427Z,5.439453
2019-02-09T07:13:47.040Z,5.429382
2019-02-09T07:14:56.558Z,5.53009
2019-02-09T07:16:06.081Z,5.661011
2019-02-09T07:17:15.618Z,5.731506
2019-02-09T07:18:25.164Z,5.862427
2019-02-09T07:19:34.752Z,5.90271
2019-02-09T07:20:44.290Z,6.013489
2019-02-09T07:21:53.847Z,6.094055
2019-02-09T07:23:03.359Z,6.073914
2019-02-09T07:24:12.878Z,6.124268
2019-02-09T07:25:22.396Z,6.194763
2019-02-09T07:26:31.913Z,6.265259
2019-02-09T07:27:41.447Z,6.224976
2019-02-09T07:28:50.993Z,6.204834
2019-02-09T07:30:00.531Z,6.174622
2019-02-09T07:31:10.095Z,6.235046
2019-02-09T07:32:19.627Z,6.295471
2019-02-09T07:33:29.153Z,6.325684
2019-02-09T07:34:38.693Z,6.476746
2019-02-09T07:35:48.206Z,6.476746
2019-02-09T07:36:57.738Z,6.476746
2019-02-09T07:38:07.260Z,6.517029
2019-02-09T07:39:16.800Z,6.567383
2019-02-09T07:40:26.342Z,6.65802
2019-02-09T07:41:35.850Z,6.688232
2019-02-09T07:42:45.367Z,6.627808
2019-02-09T07:43:54.894Z,6.557312
2019-02-09T07:45:04.408Z,6.517029
2019-02-09T07:46:13.928Z,6.517029
2019-02-09T07:47:23.633Z,6.587524
2019-02-09T07:48:33.144Z,6.768799
2019-02-09T07:49:42.677Z,6.809082
2019-02-09T07:50:52.183Z,6.869507
2019-02-09T07:52:01.698Z,6.960144
2019-02-09T07:53:11.243Z,7.060852
2019-02-09T07:54:20.799Z,7.020569
2019-02-09T07:55:30.331Z,7.050781
2019-02-09T07:56:39.852Z,7.020569
2019-02-09T07:57:49.377Z,6.990356
2019-02-09T07:58:58.930Z,6.990356
2019-02-09T08:00:08.458Z,6.990356
2019-02-09T08:01:17.991Z,7.03064
2019-02-09T08:02:27.540Z,7.03064
2019-02-09T08:03:37.081Z,7.000427
2019-02-09T08:04:46.620Z,7.000427
2019-02-09T08:05:56.147Z,7.020569
2019-02-09T08:07:05.655Z,7.050781
2019-02-09T08:08:15.160Z,7.03064
2019-02-09T08:09:24.710Z,6.970215
2019-02-09T08:10:34.222Z,6.929932
2019-02-09T08:11:43.767Z,6.960144
2019-02-09T08:12:53.332Z,6.929932
2019-02-09T08:14:02.860Z,6.889648
2019-02-09T08:15:12.386Z,6.869507
2019-02-09T08:16:21.903Z,6.78894
2019-02-09T08:17:31.443Z,6.748657
2019-02-09T08:18:40.994Z,6.849365
2019-02-09T08:19:50.605Z,6.929932
2019-02-09T08:21:00.114Z,6.950073
2019-02-09T08:22:09.647Z,6.950073
2019-02-09T08:23:19.174Z,7.03064
2019-02-09T08:24:28.709Z,7.000427
2019-02-09T08:25:38.236Z,7.000427
2019-02-09T08:26:47.744Z,7.101135
2019-02-09T08:27:57.261Z,7.111206
2019-02-09T08:29:06.813Z,7.131348
2019-02-09T08:30:16.407Z,7.232056
2019-02-09T08:31:25.947Z,7.403259
2019-02-09T08:32:35.481Z,7.503967
2019-02-09T08:33:45.025Z,7.584534
2019-02-09T08:34:54.569Z,7.78595
2019-02-09T08:36:04.169Z,7.846375
2019-02-09T08:37:13.807Z,7.78595
2019-02-09T08:38:23.314Z,7.816162
2019-02-09T08:39:33.618Z,7.796021
2019-02-09T08:40:43.185Z,7.816162
2019-02-09T08:41:53.696Z,7.755737
2019-02-09T08:43:03.227Z,7.755737
2019-02-09T08:44:12.807Z,7.695312
2019-02-09T08:45:22.316Z,7.634888
2019-02-09T08:46:31.832Z,7.614746
2019-02-09T08:47:41.362Z,7.574463
2019-02-09T08:48:50.900Z,7.53418
2019-02-09T08:50:00.500Z,7.514038
2019-02-09T08:51:10.021Z,7.453613
2019-02-09T08:52:19.542Z,7.393188
2019-02-09T08:53:29.048Z,7.403259
2019-02-09T08:54:38.643Z,7.383118
2019-02-09T08:55:48.174Z,7.362976
2019-02-09T08:56:57.699Z,7.483826
2019-02-09T08:58:07.314Z,7.564392
2019-02-09T08:59:16.846Z,7.54425
2019-02-09T09:00:26.445Z,7.514038
2019-02-09T09:01:35.972Z,7.483826
2019-02-09T09:02:45.507Z,7.483826
2019-02-09T09:03:55.058Z,7.514038
2019-02-09T09:05:09.502Z,7.483826
2019-02-09T09:06:14.130Z,7.655029
2019-02-09T09:07:23.675Z,7.765808
2019-02-09T09:08:33.219Z,7.765808
2019-02-09T09:09:42.779Z,7.926941
2019-02-09T09:10:52.323Z,7.997437
2019-02-09T09:12:01.849Z,8.128357
2019-02-09T09:13:11.386Z,8.128357
2019-02-09T09:14:20.917Z,8.128357
2019-02-09T09:15:30.488Z,8.279419
2019-02-09T09:16:40.004Z,8.329773
2019-02-09T09:17:49.590Z,8.259277
2019-02-09T09:18:59.134Z,8.299561
2019-02-09T09:20:08.696Z,8.490906
2019-02-09T09:21:18.241Z,8.631897
2019-02-09T09:22:27.760Z,8.662109
2019-02-09T09:23:37.273Z,8.601685
2019-02-09T09:24:46.831Z,8.702393
2019-02-09T09:25:56.344Z,8.732605
2019-02-09T09:27:05.843Z,8.92395
2019-02-09T09:28:15.368Z,9.034729
2019-02-09T09:29:24.904Z,8.954163
2019-02-09T09:30:34.550Z,9.155579
2019-02-09T09:31:44.073Z,9.17572
2019-02-09T09:32:53.602Z,9.135437
2019-02-09T09:34:03.127Z,8.853455
2019-02-09T09:35:12.699Z,8.641968
2019-02-09T09:36:22.224Z,8.511047
2019-02-09T09:37:31.741Z,8.440552
2019-02-09T09:38:41.293Z,8.329773
2019-02-09T09:39:50.866Z,8.329773
2019-02-09T09:41:00.373Z,8.309631
2019-02-09T09:42:09.910Z,8.309631
2019-02-09T09:43:19.434Z,8.299561
2019-02-09T09:44:29.092Z,8.339844
2019-02-09T09:45:38.659Z,8.299561
2019-02-09T09:46:48.189Z,8.279419
2019-02-09T09:47:57.733Z,8.259277
2019-02-09T09:49:07.280Z,8.269348
2019-02-09T09:50:16.831Z,8.279419
2019-02-09T09:51:26.336Z,8.279419
2019-02-09T09:52:35.854Z,8.229065
2019-02-09T09:53:45.395Z,8.239136
2019-02-09T09:54:54.992Z,8.309631
2019-02-09T09:56:04.503Z,8.359985
2019-02-09T09:57:14.992Z,8.370056
2019-02-09T09:58:24.513Z,8.511047
2019-02-09T09:59:34.039Z,8.581543
2019-02-09T10:00:43.617Z,8.480835
2019-02-09T10:01:53.140Z,8.440552
2019-02-09T10:03:02.672Z,8.450623
2019-02-09T10:04:12.181Z,8.480835
2019-02-09T10:05:21.764Z,8.490906
2019-02-09T10:06:31.293Z,8.480835
2019-02-09T10:07:40.841Z,8.490906
2019-02-09T10:08:50.373Z,8.581543
2019-02-09T10:09:59.931Z,8.631897
2019-02-09T10:11:09.432Z,8.702393
2019-02-09T10:12:18.953Z,8.692322
2019-02-09T10:13:28.475Z,8.712463
2019-02-09T10:14:37.980Z,8.913879
2019-02-09T10:15:47.571Z,9.064941
2019-02-09T10:16:57.111Z,9.216003
2019-02-09T10:18:06.666Z,9.367065
2019-02-09T10:19:16.169Z,9.367065
2019-02-09T10:20:25.724Z,9.407349
2019-02-09T10:21:35.258Z,9.588623
2019-02-09T10:22:44.872Z,9.689331
2019-02-09T10:23:54.404Z,9.920959
2019-02-09T10:25:04.001Z,10.162659
2019-02-09T10:26:13.504Z,10.072021
2019-02-09T10:27:23.020Z,10.092163
2019-02-09T10:28:32.562Z,10.041809
2019-02-09T10:29:42.072Z,10.041809
2019-02-09T10:30:51.632Z,9.820251
2019-02-09T10:32:01.145Z,9.830322
2019-02-09T10:33:10.661Z,9.840393
2019-02-09T10:34:20.330Z,9.840393
2019-02-09T10:35:29.827Z,9.951172
2019-02-09T10:36:39.467Z,10.011597
2019-02-09T10:37:48.981Z,9.991455
2019-02-09T10:38:58.506Z,10.202942
2019-02-09T10:40:08.083Z,10.172729
2019-02-09T10:41:17.584Z,10.333862
2019-02-09T10:42:27.090Z,10.30365
2019-02-09T10:43:36.620Z,10.223083
2019-02-09T10:44:46.117Z,10.152588
2019-02-09T10:45:55.684Z,10.192871
2019-02-09T10:47:05.200Z,10.122375
2019-02-09T10:48:14.728Z,10.192871
2019-02-09T10:49:24.255Z,10.253296
2019-02-09T10:50:33.803Z,10.283508
2019-02-09T10:51:43.359Z,10.494995
2019-02-09T10:52:52.884Z,10.55542
2019-02-09T10:54:02.444Z,10.464783
2019-02-09T10:55:12.017Z,10.30365
2019-02-09T10:56:21.550Z,10.233154
2019-02-09T10:57:31.069Z,10.162659
2019-02-09T10:58:40.582Z,10.202942
2019-02-09T10:59:50.091Z,10.354004
2019-02-09T11:00:59.651Z,10.333862
2019-02-09T11:02:09.161Z,10.192871
2019-02-09T11:03:18.688Z,10.343933
2019-02-09T11:04:28.202Z,10.505066
2019-02-09T11:05:37.764Z,10.595703
2019-02-09T11:06:47.296Z,10.746765
2019-02-09T11:07:56.823Z,10.80719
2019-02-09T11:09:06.362Z,10.706482
2019-02-09T11:10:15.884Z,10.4245
2019-02-09T11:11:25.440Z,10.525208
2019-02-09T11:12:34.968Z,10.55542
2019-02-09T11:13:44.490Z,10.55542
2019-02-09T11:14:54.007Z,10.736694
2019-02-09T11:16:03.602Z,10.666199
2019-02-09T11:17:13.121Z,10.605774
2019-02-09T11:18:22.646Z,10.484924
2019-02-09T11:19:32.163Z,10.313721
2019-02-09T11:20:41.747Z,10.152588
2019-02-09T11:21:51.280Z,10.152588
2019-02-09T11:23:00.814Z,10.132446
2019-02-09T11:24:10.413Z,10.374146
2019-02-09T11:25:19.920Z,10.525208
2019-02-09T11:26:29.523Z,10.55542
2019-02-09T11:27:39.076Z,10.565491
2019-02-09T11:28:48.602Z,10.787048
2019-02-09T11:29:58.131Z,10.837402
2019-02-09T11:31:07.702Z,10.635986
2019-02-09T11:32:17.211Z,10.736694
2019-02-09T11:33:26.752Z,10.92804
2019-02-09T11:34:36.274Z,10.746765
2019-02-09T11:35:45.828Z,10.736694
2019-02-09T11:36:55.363Z,10.857544
2019-02-09T11:38:04.903Z,11.048889
2019-02-09T11:39:14.435Z,11.018677
2019-02-09T11:40:23.965Z,10.837402
2019-02-09T11:41:33.531Z,10.605774
2019-02-09T11:42:43.056Z,10.384216
2019-02-09T11:43:52.590Z,10.223083
2019-02-09T11:45:02.107Z,10.072021
2019-02-09T11:46:11.670Z,10.011597
2019-02-09T11:47:21.211Z,9.890747
2019-02-09T11:48:30.759Z,9.920959
2019-02-09T11:49:40.278Z,9.991455
2019-02-09T11:50:49.833Z,10.172729
2019-02-09T11:51:59.403Z,10.283508
2019-02-09T11:53:08.895Z,10.172729
2019-02-09T11:54:18.444Z,10.011597
2019-02-09T11:55:27.968Z,9.910889
2019-02-09T11:56:37.538Z,10.011597
2019-02-09T11:57:47.081Z,10.202942
2019-02-09T11:58:56.617Z,10.525208
2019-02-09T12:00:06.151Z,10.817261
2019-02-09T12:01:16.052Z,10.968323
2019-02-09T12:02:25.234Z,11.079102
2019-02-09T12:03:34.769Z,11.018677
2019-02-09T12:04:44.297Z,11.099243
2019-02-09T12:05:53.865Z,11.099243
2019-02-09T12:07:03.374Z,11.038818
2019-02-09T12:08:12.906Z,11.230164
2019-02-09T12:09:22.420Z,11.109314
2019-02-09T12:10:31.932Z,10.958252
2019-02-09T12:11:41.500Z,11.048889
2019-02-09T12:12:51.015Z,10.837402
2019-02-09T12:14:00.540Z,10.756836
2019-02-09T12:15:10.058Z,10.787048
2019-02-09T12:16:19.625Z,10.68634
2019-02-09T12:17:29.152Z,11.290588
2019-02-09T12:18:38.676Z,11.361084
2019-02-09T12:19:48.207Z,11.300659
2019-02-09T12:20:57.797Z,11.260376
2019-02-09T12:22:07.309Z,11.149597
2019-02-09T12:23:16.913Z,11.230164
2019-02-09T12:24:26.463Z,11.260376
2019-02-09T12:25:35.987Z,11.300659
2019-02-09T12:26:45.569Z,11.149597
2019-02-09T12:27:55.117Z,11.220093
2019-02-09T12:29:04.630Z,11.260376
2019-02-09T12:30:15.122Z,11.351013
2019-02-09T12:31:24.660Z,11.622925
2019-02-09T12:32:34.165Z,11.804199
2019-02-09T12:33:43.700Z,11.995544
2019-02-09T12:34:53.214Z,11.773987
2019-02-09T12:36:02.794Z,11.300659
2019-02-09T12:37:12.309Z,11.522217
2019-02-09T12:38:21.833Z,11.522217
2019-02-09T12:39:31.378Z,11.44165
2019-02-09T12:40:40.921Z,11.18988
2019-02-09T12:41:50.507Z,11.220093
2019-02-09T12:43:00.026Z,11.169739
2019-02-09T12:44:09.556Z,10.958252
2019-02-09T12:45:19.072Z,10.625916
2019-02-09T12:46:28.647Z,10.635986
2019-02-09T12:47:38.175Z,10.988464
2019-02-09T12:48:47.694Z,11.330872
2019-02-09T12:49:57.253Z,11.330872
2019-02-09T12:51:06.836Z,11.300659
2019-02-09T12:52:16.357Z,11.733704
2019-02-09T12:53:25.902Z,11.904907
2019-02-09T12:54:35.454Z,12.06604
2019-02-09T12:55:44.975Z,11.995544
2019-02-09T12:56:54.548Z,12.055969
2019-02-09T12:58:04.064Z,11.93512
2019-02-09T12:59:14.927Z,11.93512
2019-02-09T13:00:23.155Z,12.19696
2019-02-09T13:01:32.730Z,12.19696
2019-02-09T13:02:42.264Z,11.602783
2019-02-09T13:03:51.775Z,11.17981
2019-02-09T13:05:01.313Z,10.706482
2019-02-09T13:06:10.888Z,10.595703
2019-02-09T13:07:20.403Z,10.817261
2019-02-09T13:08:29.936Z,10.666199
2019-02-09T13:09:39.455Z,10.787048
2019-02-09T13:10:48.986Z,10.132446
2019-02-09T13:11:58.607Z,9.910889
2019-02-09T13:13:08.132Z,9.729614
2019-02-09T13:14:17.661Z,9.558411
2019-02-09T13:15:27.191Z,9.689331
2019-02-09T13:16:36.747Z,9.638977
2019-02-09T13:17:46.271Z,9.618835
2019-02-09T13:18:55.773Z,9.830322
2019-02-09T13:20:05.286Z,9.971313
2019-02-09T13:21:14.853Z,10.162659
2019-02-09T13:22:24.406Z,10.021667
2019-02-09T13:23:33.939Z,9.729614
2019-02-09T13:24:43.490Z,9.588623
2019-02-09T13:25:52.995Z,9.538269
2019-02-09T13:27:02.560Z,9.739685
2019-02-09T13:28:12.076Z,9.739685
2019-02-09T13:29:21.649Z,9.608765
2019-02-09T13:30:31.177Z,9.578552
2019-02-09T13:31:40.686Z,10.092163
2019-02-09T13:32:50.222Z,10.776978